sensor_id;sensor_type;location;lat;lon;timestamp;temperature;humidity
75784;DHT22;64565;44.752;37.674;2022-11-20T00:19:10;13.53;118.99
75784;DHT22;64565;44.752;37.674;2022-11-20T00:22:00;13.56;118.99
75784;DHT22;64565;44.752;37.674;2022-11-20T00:24:45;13.58;118.99
75784;DHT22;64565;44.752;37.674;2022-11-20T00:27:33;13.67;118.99
75784;DHT22;64565;44.752;37.674;2022-11-20T00:30:13;13.69;118.99
75784;DHT22;64565;44.752;37.674;2022-11-20T00:32:53;13.69;118.99
75784;DHT22;64565;44.752;37.674;2022-11-20T00:35:36;13.70;118.99
75784;DHT22;64565;44.752;37.674;2022-11-20T00:38:16;13.68;118.99
75784;DHT22;64565;44.752;37.674;2022-11-20T00:41:00;13.73;118.99
75784;DHT22;64565;44.752;37.674;2022-11-20T00:43:41;13.77;118.99
75784;DHT22;64565;44.752;37.674;2022-11-20T00:46:30;13.79;118.99
75784;DHT22;64565;44.752;37.674;2022-11-20T00:49:13;13.80;118.99
75784;DHT22;64565;44.752;37.674;2022-11-20T00:51:54;13.83;118.99
75784;DHT22;64565;44.752;37.674;2022-11-20T00:54:35;13.84;118.99
75784;DHT22;64565;44.752;37.674;2022-11-20T00:57:15;13.92;118.99
75784;DHT22;64565;44.752;37.674;2022-11-20T00:59:55;13.94;118.99
75784;DHT22;64565;44.752;37.674;2022-11-20T01:02:35;13.91;118.99
75784;DHT22;64565;44.752;37.674;2022-11-20T01:05:20;13.90;118.99
75784;DHT22;64565;44.752;37.674;2022-11-20T01:08:00;13.92;118.99
75784;DHT22;64565;44.752;37.674;2022-11-20T01:11:07;13.91;118.99
75784;DHT22;64565;44.752;37.674;2022-11-20T01:13:49;13.95;118.99
75784;DHT22;64565;44.752;37.674;2022-11-20T01:16:51;14.03;118.99
75784;DHT22;64565;44.752;37.674;2022-11-20T01:19:32;14.05;118.99
75784;DHT22;64565;44.752;37.674;2022-11-20T01:22:13;14.18;118.99
75784;DHT22;64565;44.752;37.674;2022-11-20T01:24:56;14.14;118.99
75784;DHT22;64565;44.752;37.674;2022-11-20T01:27:57;14.11;118.99
75784;DHT22;64565;44.752;37.674;2022-11-20T01:30:37;14.03;118.99
75784;DHT22;64565;44.752;37.674;2022-11-20T01:33:17;13.91;118.99
75784;DHT22;64565;44.752;37.674;2022-11-20T01:36:03;13.79;118.99
75784;DHT22;64565;44.752;37.674;2022-11-20T01:38:52;13.70;118.99
75784;DHT22;64565;44.752;37.674;2022-11-20T01:41:33;13.70;118.99
75784;DHT22;64565;44.752;37.674;2022-11-20T01:47:45;13.70;118.99
75784;DHT22;64565;44.752;37.674;2022-11-20T01:50:42;13.75;118.99
75784;DHT22;64565;44.752;37.674;2022-11-20T01:53:34;13.73;118.99
75784;DHT22;64565;44.752;37.674;2022-11-20T01:56:21;13.76;118.99
75784;DHT22;64565;44.752;37.674;2022-11-20T01:59:14;13.81;118.99
75784;DHT22;64565;44.752;37.674;2022-11-20T02:01:46;13.83;118.99
75784;DHT22;64565;44.752;37.674;2022-11-20T02:04:35;13.83;118.99
75784;DHT22;64565;44.752;37.674;2022-11-20T02:07:37;13.81;118.99
75784;DHT22;64565;44.752;37.674;2022-11-20T02:10:18;13.79;118.99
75784;DHT22;64565;44.752;37.674;2022-11-20T02:12:59;13.78;118.99
75784;DHT22;64565;44.752;37.674;2022-11-20T02:15:58;13.82;118.99
75784;DHT22;64565;44.752;37.674;2022-11-20T02:18:38;13.88;118.99
75784;DHT22;64565;44.752;37.674;2022-11-20T02:24:36;13.99;118.99
75784;DHT22;64565;44.752;37.674;2022-11-20T02:27:38;14.03;118.99
75784;DHT22;64565;44.752;37.674;2022-11-20T02:30:19;14.05;118.99
75784;DHT22;64565;44.752;37.674;2022-11-20T02:32:59;14.05;118.99
75784;DHT22;64565;44.752;37.674;2022-11-20T02:35:45;14.04;118.99
75784;DHT22;64565;44.752;37.674;2022-11-20T02:38:25;14.03;118.99
75784;DHT22;64565;44.752;37.674;2022-11-20T02:41:05;14.03;118.99
75784;DHT22;64565;44.752;37.674;2022-11-20T02:43:46;14.03;118.99
75784;DHT22;64565;44.752;37.674;2022-11-20T02:46:35;14.01;118.99
75784;DHT22;64565;44.752;37.674;2022-11-20T02:49:40;14.03;118.99
75784;DHT22;64565;44.752;37.674;2022-11-20T02:52:21;14.03;118.99
75784;DHT22;64565;44.752;37.674;2022-11-20T02:55:01;14.07;118.99
75784;DHT22;64565;44.752;37.674;2022-11-20T02:57:43;14.12;118.99
75784;DHT22;64565;44.752;37.674;2022-11-20T03:00:23;14.14;118.99
75784;DHT22;64565;44.752;37.674;2022-11-20T03:03:03;14.14;118.99
75784;DHT22;64565;44.752;37.674;2022-11-20T03:05:43;14.20;118.99
75784;DHT22;64565;44.752;37.674;2022-11-20T03:08:23;14.20;118.99
75784;DHT22;64565;44.752;37.674;2022-11-20T03:11:05;14.21;118.99
75784;DHT22;64565;44.752;37.674;2022-11-20T03:14:08;14.19;118.99
75784;DHT22;64565;44.752;37.674;2022-11-20T03:16:58;14.19;118.99
75784;DHT22;64565;44.752;37.674;2022-11-20T03:19:38;14.18;118.99
75784;DHT22;64565;44.752;37.674;2022-11-20T03:22:47;14.20;118.99
75784;DHT22;64565;44.752;37.674;2022-11-20T03:25:32;14.21;118.99
75784;DHT22;64565;44.752;37.674;2022-11-20T03:28:12;14.21;118.99
75784;DHT22;64565;44.752;37.674;2022-11-20T03:30:52;14.20;118.99
75784;DHT22;64565;44.752;37.674;2022-11-20T03:33:40;14.19;118.99
75784;DHT22;64565;44.752;37.674;2022-11-20T03:36:42;14.17;118.99
75784;DHT22;64565;44.752;37.674;2022-11-20T03:39:20;14.18;118.99
75784;DHT22;64565;44.752;37.674;2022-11-20T03:42:09;14.21;118.99
75784;DHT22;64565;44.752;37.674;2022-11-20T03:45:08;14.24;118.99
75784;DHT22;64565;44.752;37.674;2022-11-20T03:47:37;14.28;118.99
75784;DHT22;64565;44.752;37.674;2022-11-20T03:50:26;14.28;118.99
75784;DHT22;64565;44.752;37.674;2022-11-20T03:52:55;14.33;118.99
75784;DHT22;64565;44.752;37.674;2022-11-20T03:55:38;14.33;118.99
75784;DHT22;64565;44.752;37.674;2022-11-20T03:58:18;14.38;118.99
75784;DHT22;64565;44.752;37.674;2022-11-20T04:01:12;14.39;118.99
75784;DHT22;64565;44.752;37.674;2022-11-20T04:03:54;14.40;118.99
75784;DHT22;64565;44.752;37.674;2022-11-20T04:06:59;14.40;118.99
75784;DHT22;64565;44.752;37.674;2022-11-20T04:09:39;14.42;118.99
75784;DHT22;64565;44.752;37.674;2022-11-20T04:12:19;14.51;118.99
75784;DHT22;64565;44.752;37.674;2022-11-20T04:14:59;14.52;118.99
75784;DHT22;64565;44.752;37.674;2022-11-20T04:17:39;14.56;118.99
75784;DHT22;64565;44.752;37.674;2022-11-20T04:20:19;14.57;118.99
75784;DHT22;64565;44.752;37.674;2022-11-20T04:23:24;14.63;118.99
75784;DHT22;64565;44.752;37.674;2022-11-20T04:26:09;14.60;118.99
75784;DHT22;64565;44.752;37.674;2022-11-20T04:29:00;14.64;118.99
75784;DHT22;64565;44.752;37.674;2022-11-20T04:31:59;14.65;118.99
75784;DHT22;64565;44.752;37.674;2022-11-20T04:34:40;14.67;118.99
75784;DHT22;64565;44.752;37.674;2022-11-20T04:37:21;14.70;118.99
75784;DHT22;64565;44.752;37.674;2022-11-20T04:40:01;14.71;118.99
75784;DHT22;64565;44.752;37.674;2022-11-20T04:42:42;14.74;118.99
75784;DHT22;64565;44.752;37.674;2022-11-20T04:45:22;14.73;118.99
75784;DHT22;64565;44.752;37.674;2022-11-20T04:48:03;14.74;118.99
75784;DHT22;64565;44.752;37.674;2022-11-20T04:50:44;14.73;118.99
75784;DHT22;64565;44.752;37.674;2022-11-20T04:53:24;14.71;118.99
75784;DHT22;64565;44.752;37.674;2022-11-20T04:56:11;14.73;118.99
75784;DHT22;64565;44.752;37.674;2022-11-20T04:58:55;14.75;118.99
75784;DHT22;64565;44.752;37.674;2022-11-20T05:01:35;14.79;118.99
75784;DHT22;64565;44.752;37.674;2022-11-20T05:04:11;14.77;118.99
75784;DHT22;64565;44.752;37.674;2022-11-20T05:06:54;14.78;118.99
75784;DHT22;64565;44.752;37.674;2022-11-20T05:09:45;14.82;118.99
75784;DHT22;64565;44.752;37.674;2022-11-20T05:12:26;14.83;118.99
75784;DHT22;64565;44.752;37.674;2022-11-20T05:15:07;14.86;118.99
75784;DHT22;64565;44.752;37.674;2022-11-20T05:17:50;14.85;118.99
75784;DHT22;64565;44.752;37.674;2022-11-20T05:20:56;14.85;118.99
75784;DHT22;64565;44.752;37.674;2022-11-20T05:23:36;14.84;118.99
75784;DHT22;64565;44.752;37.674;2022-11-20T05:26:22;14.82;118.99
75784;DHT22;64565;44.752;37.674;2022-11-20T05:29:03;14.83;118.99
75784;DHT22;64565;44.752;37.674;2022-11-20T05:31:44;14.80;118.99
75784;DHT22;64565;44.752;37.674;2022-11-20T05:34:30;14.77;118.99
75784;DHT22;64565;44.752;37.674;2022-11-20T05:37:56;14.77;118.99
75784;DHT22;64565;44.752;37.674;2022-11-20T05:40:41;14.73;118.99
75784;DHT22;64565;44.752;37.674;2022-11-20T05:43:28;14.74;118.99
75784;DHT22;64565;44.752;37.674;2022-11-20T05:47:09;14.78;118.99
75784;DHT22;64565;44.752;37.674;2022-11-20T05:50:27;14.80;118.99
75784;DHT22;64565;44.752;37.674;2022-11-20T05:53:21;14.84;118.99
75784;DHT22;64565;44.752;37.674;2022-11-20T05:56:05;14.89;118.99
75784;DHT22;64565;44.752;37.674;2022-11-20T05:58:56;14.91;118.99
75784;DHT22;64565;44.752;37.674;2022-11-20T06:01:26;14.88;118.99
75784;DHT22;64565;44.752;37.674;2022-11-20T06:03:56;14.88;118.99
75784;DHT22;64565;44.752;37.674;2022-11-20T06:06:45;14.86;118.99
75784;DHT22;64565;44.752;37.674;2022-11-20T06:09:28;14.83;118.99
75784;DHT22;64565;44.752;37.674;2022-11-20T06:12:14;14.80;118.99
75784;DHT22;64565;44.752;37.674;2022-11-20T06:14:57;14.87;118.99
75784;DHT22;64565;44.752;37.674;2022-11-20T06:17:40;14.88;118.99
75784;DHT22;64565;44.752;37.674;2022-11-20T06:20:29;14.83;118.99
75784;DHT22;64565;44.752;37.674;2022-11-20T06:23:13;14.84;118.99
75784;DHT22;64565;44.752;37.674;2022-11-20T06:26:04;14.86;118.99
75784;DHT22;64565;44.752;37.674;2022-11-20T06:28:52;14.91;118.99
75784;DHT22;64565;44.752;37.674;2022-11-20T06:31:32;14.89;118.99
75784;DHT22;64565;44.752;37.674;2022-11-20T06:34:38;14.89;118.99
75784;DHT22;64565;44.752;37.674;2022-11-20T06:37:19;14.92;118.99
75784;DHT22;64565;44.752;37.674;2022-11-20T06:39:59;14.93;118.99
75784;DHT22;64565;44.752;37.674;2022-11-20T06:42:39;14.97;118.99
75784;DHT22;64565;44.752;37.674;2022-11-20T06:45:22;14.96;118.99
75784;DHT22;64565;44.752;37.674;2022-11-20T06:48:02;14.98;118.99
75784;DHT22;64565;44.752;37.674;2022-11-20T06:50:52;15.01;118.99
75784;DHT22;64565;44.752;37.674;2022-11-20T06:53:24;15.06;118.99
75784;DHT22;64565;44.752;37.674;2022-11-20T07:00:01;15.04;118.99
75784;DHT22;64565;44.752;37.674;2022-11-20T07:02:41;15.01;118.99
75784;DHT22;64565;44.752;37.674;2022-11-20T07:05:30;15.02;118.99
75784;DHT22;64565;44.752;37.674;2022-11-20T07:08:35;14.99;118.99
75784;DHT22;64565;44.752;37.674;2022-11-20T07:11:15;14.97;118.99
75784;DHT22;64565;44.752;37.674;2022-11-20T07:13:56;14.99;118.99
75784;DHT22;64565;44.752;37.674;2022-11-20T07:16:38;14.99;118.99
75784;DHT22;64565;44.752;37.674;2022-11-20T07:19:20;15.04;118.99
75784;DHT22;64565;44.752;37.674;2022-11-20T07:22:21;15.09;118.99
75784;DHT22;64565;44.752;37.674;2022-11-20T07:25:05;15.14;118.99
75784;DHT22;64565;44.752;37.674;2022-11-20T07:27:47;15.21;118.99
75784;DHT22;64565;44.752;37.674;2022-11-20T07:30:29;15.31;118.99
75784;DHT22;64565;44.752;37.674;2022-11-20T07:33:10;15.34;118.99
75784;DHT22;64565;44.752;37.674;2022-11-20T07:36:07;15.45;118.99
75784;DHT22;64565;44.752;37.674;2022-11-20T07:38:49;15.52;118.99
75784;DHT22;64565;44.752;37.674;2022-11-20T07:41:51;15.69;118.99
75784;DHT22;64565;44.752;37.674;2022-11-20T07:44:32;15.74;118.99
75784;DHT22;64565;44.752;37.674;2022-11-20T07:47:15;15.81;118.99
75784;DHT22;64565;44.752;37.674;2022-11-20T07:49:58;15.89;118.99
75784;DHT22;64565;44.752;37.674;2022-11-20T07:52:48;15.93;118.99
75784;DHT22;64565;44.752;37.674;2022-11-20T07:55:28;16.02;118.99
75784;DHT22;64565;44.752;37.674;2022-11-20T07:58:07;16.18;118.99
75784;DHT22;64565;44.752;37.674;2022-11-20T08:00:49;16.35;118.99
75784;DHT22;64565;44.752;37.674;2022-11-20T08:03:26;16.60;118.99
75784;DHT22;64565;44.752;37.674;2022-11-20T08:06:01;16.81;118.99
75784;DHT22;64565;44.752;37.674;2022-11-20T08:08:50;17.16;118.99
75784;DHT22;64565;44.752;37.674;2022-11-20T08:11:47;17.41;118.99
75784;DHT22;64565;44.752;37.674;2022-11-20T08:14:54;17.62;118.99
75784;DHT22;64565;44.752;37.674;2022-11-20T08:17:45;17.77;118.99
75784;DHT22;64565;44.752;37.674;2022-11-20T08:20:55;18.20;118.99
75784;DHT22;64565;44.752;37.674;2022-11-20T08:24:33;18.82;118.99
75784;DHT22;64565;44.752;37.674;2022-11-20T08:27:14;19.42;118.99
75784;DHT22;64565;44.752;37.674;2022-11-20T08:29:44;19.52;118.99
75784;DHT22;64565;44.752;37.674;2022-11-20T08:32:39;19.12;118.99
75784;DHT22;64565;44.752;37.674;2022-11-20T08:35:21;19.52;118.99
75784;DHT22;64565;44.752;37.674;2022-11-20T08:38:12;20.56;118.99
75784;DHT22;64565;44.752;37.674;2022-11-20T08:41:03;21.39;118.99
75784;DHT22;64565;44.752;37.674;2022-11-20T08:44:11;21.64;118.99
75784;DHT22;64565;44.752;37.674;2022-11-20T08:47:03;21.32;118.99
75784;DHT22;64565;44.752;37.674;2022-11-20T08:50:02;21.97;112.40
75784;DHT22;64565;44.752;37.674;2022-11-20T08:52:53;21.87;118.99
75784;DHT22;64565;44.752;37.674;2022-11-20T08:55:42;21.45;118.07
75784;DHT22;64565;44.752;37.674;2022-11-20T08:58:22;21.46;118.99
75784;DHT22;64565;44.752;37.674;2022-11-20T09:01:12;21.40;118.99
75784;DHT22;64565;44.752;37.674;2022-11-20T09:03:56;21.60;118.99
75784;DHT22;64565;44.752;37.674;2022-11-20T09:06:39;21.82;113.18
75784;DHT22;64565;44.752;37.674;2022-11-20T09:09:20;21.31;118.99
75784;DHT22;64565;44.752;37.674;2022-11-20T09:12:02;20.96;118.99
75784;DHT22;64565;44.752;37.674;2022-11-20T09:14:45;20.68;118.99
75784;DHT22;64565;44.752;37.674;2022-11-20T09:17:35;20.93;118.99
75784;DHT22;64565;44.752;37.674;2022-11-20T09:20:24;21.22;118.99
75784;DHT22;64565;44.752;37.674;2022-11-20T09:23:14;21.94;117.60
75784;DHT22;64565;44.752;37.674;2022-11-20T09:26:09;22.37;115.39
75784;DHT22;64565;44.752;37.674;2022-11-20T09:28:59;22.98;108.21
75784;DHT22;64565;44.752;37.674;2022-11-20T09:31:48;22.56;106.87
75784;DHT22;64565;44.752;37.674;2022-11-20T09:34:38;23.02;101.74
75784;DHT22;64565;44.752;37.674;2022-11-20T09:37:18;23.37;98.58
75784;DHT22;64565;44.752;37.674;2022-11-20T09:40:29;22.33;115.19
75784;DHT22;64565;44.752;37.674;2022-11-20T09:46:28;22.12;118.99
75784;DHT22;64565;44.752;37.674;2022-11-20T09:56:00;22.42;105.82
75784;DHT22;64565;44.752;37.674;2022-11-20T09:58:45;22.66;107.05
75784;DHT22;64565;44.752;37.674;2022-11-20T10:01:31;22.25;111.73
75784;DHT22;64565;44.752;37.674;2022-11-20T10:04:24;21.68;115.77
75784;DHT22;64565;44.752;37.674;2022-11-20T10:07:17;21.69;118.02
75784;DHT22;64565;44.752;37.674;2022-11-20T10:10:01;22.52;108.95
75784;DHT22;64565;44.752;37.674;2022-11-20T10:22:36;21.95;111.34
75784;DHT22;64565;44.752;37.674;2022-11-20T10:25:38;21.96;118.99
75784;DHT22;64565;44.752;37.674;2022-11-20T10:31:37;22.36;105.11
75784;DHT22;64565;44.752;37.674;2022-11-20T10:34:25;21.98;108.98
75784;DHT22;64565;44.752;37.674;2022-11-20T10:37:22;21.98;113.64
75784;DHT22;64565;44.752;37.674;2022-11-20T10:40:38;21.34;118.99
75784;DHT22;64565;44.752;37.674;2022-11-20T10:43:43;21.40;115.75
75784;DHT22;64565;44.752;37.674;2022-11-20T10:46:43;21.16;118.99
75784;DHT22;64565;44.752;37.674;2022-11-20T10:49:27;21.92;111.38
75784;DHT22;64565;44.752;37.674;2022-11-20T10:56:15;21.94;108.43
75784;DHT22;64565;44.752;37.674;2022-11-20T11:05:56;22.12;107.25
75784;DHT22;64565;44.752;37.674;2022-11-20T11:08:43;21.67;116.00
75784;DHT22;64565;44.752;37.674;2022-11-20T11:11:33;20.95;118.99
75784;DHT22;64565;44.752;37.674;2022-11-20T11:14:15;21.02;118.99
75784;DHT22;64565;44.752;37.674;2022-11-20T11:16:58;20.60;118.99
75784;DHT22;64565;44.752;37.674;2022-11-20T11:20:16;21.05;118.99
75784;DHT22;64565;44.752;37.674;2022-11-20T11:23:44;21.25;118.99
75784;DHT22;64565;44.752;37.674;2022-11-20T11:26:39;21.32;118.99
75784;DHT22;64565;44.752;37.674;2022-11-20T11:29:24;20.46;118.99
75784;DHT22;64565;44.752;37.674;2022-11-20T11:32:40;19.76;118.99
75784;DHT22;64565;44.752;37.674;2022-11-20T11:36:30;20.09;118.99
75784;DHT22;64565;44.752;37.674;2022-11-20T11:39:23;20.10;118.99
75784;DHT22;64565;44.752;37.674;2022-11-20T11:42:50;19.48;118.99
75784;DHT22;64565;44.752;37.674;2022-11-20T11:45:57;18.76;118.99
75784;DHT22;64565;44.752;37.674;2022-11-20T11:48:38;18.48;118.99
75784;DHT22;64565;44.752;37.674;2022-11-20T11:54:55;18.30;118.99
75784;DHT22;64565;44.752;37.674;2022-11-20T12:00:48;18.15;118.99
75784;DHT22;64565;44.752;37.674;2022-11-20T12:03:40;18.27;118.99
75784;DHT22;64565;44.752;37.674;2022-11-20T12:06:23;18.73;118.99
75784;DHT22;64565;44.752;37.674;2022-11-20T12:09:09;18.56;118.99
75784;DHT22;64565;44.752;37.674;2022-11-20T12:12:27;18.02;118.99
75784;DHT22;64565;44.752;37.674;2022-11-20T12:16:04;17.79;118.99
75784;DHT22;64565;44.752;37.674;2022-11-20T12:18:52;17.64;118.99
75784;DHT22;64565;44.752;37.674;2022-11-20T12:22:31;17.69;118.99
75784;DHT22;64565;44.752;37.674;2022-11-20T12:30:32;17.83;118.99
75784;DHT22;64565;44.752;37.674;2022-11-20T12:40:47;17.98;118.99
75784;DHT22;64565;44.752;37.674;2022-11-20T12:44:16;17.73;118.99
75784;DHT22;64565;44.752;37.674;2022-11-20T12:56:35;17.43;118.99
75784;DHT22;64565;44.752;37.674;2022-11-20T13:00:10;17.23;118.99
75784;DHT22;64565;44.752;37.674;2022-11-20T13:03:47;16.87;118.99
75784;DHT22;64565;44.752;37.674;2022-11-20T13:06:31;16.57;118.99
75784;DHT22;64565;44.752;37.674;2022-11-20T13:09:15;16.39;118.99
75784;DHT22;64565;44.752;37.674;2022-11-20T13:18:00;16.00;118.99
75784;DHT22;64565;44.752;37.674;2022-11-20T13:21:12;15.91;118.99
75784;DHT22;64565;44.752;37.674;2022-11-20T13:27:26;15.78;118.99
75784;DHT22;64565;44.752;37.674;2022-11-20T13:30:21;15.72;118.99
75784;DHT22;64565;44.752;37.674;2022-11-20T13:33:40;15.62;118.99
75784;DHT22;64565;44.752;37.674;2022-11-20T13:36:33;15.53;118.99
75784;DHT22;64565;44.752;37.674;2022-11-20T13:39:26;15.47;118.99
75784;DHT22;64565;44.752;37.674;2022-11-20T13:42:29;15.44;118.99
75784;DHT22;64565;44.752;37.674;2022-11-20T13:45:24;15.41;118.99
75784;DHT22;64565;44.752;37.674;2022-11-20T13:48:19;15.46;118.99
75784;DHT22;64565;44.752;37.674;2022-11-20T13:51:25;15.43;118.99
75784;DHT22;64565;44.752;37.674;2022-11-20T13:57:41;15.37;118.99
75784;DHT22;64565;44.752;37.674;2022-11-20T14:00:24;15.29;118.99
75784;DHT22;64565;44.752;37.674;2022-11-20T14:03:34;15.28;118.99
75784;DHT22;64565;44.752;37.674;2022-11-20T14:06:29;15.26;118.99
75784;DHT22;64565;44.752;37.674;2022-11-20T14:09:28;15.22;118.99
75784;DHT22;64565;44.752;37.674;2022-11-20T14:12:16;15.18;118.99
75784;DHT22;64565;44.752;37.674;2022-11-20T14:15:22;15.17;118.99
75784;DHT22;64565;44.752;37.674;2022-11-20T14:18:15;15.14;118.99
75784;DHT22;64565;44.752;37.674;2022-11-20T14:20:54;15.12;118.99
75784;DHT22;64565;44.752;37.674;2022-11-20T14:23:35;15.06;118.99
75784;DHT22;64565;44.752;37.674;2022-11-20T14:26:51;15.07;118.99
75784;DHT22;64565;44.752;37.674;2022-11-20T14:29:41;15.11;118.99
75784;DHT22;64565;44.752;37.674;2022-11-20T14:32:32;15.08;118.99
75784;DHT22;64565;44.752;37.674;2022-11-20T14:35:29;15.07;118.99
75784;DHT22;64565;44.752;37.674;2022-11-20T14:38:35;15.04;118.99
75784;DHT22;64565;44.752;37.674;2022-11-20T14:41:26;15.07;118.99
75784;DHT22;64565;44.752;37.674;2022-11-20T14:44:11;15.07;118.99
75784;DHT22;64565;44.752;37.674;2022-11-20T14:46:52;15.08;118.99
75784;DHT22;64565;44.752;37.674;2022-11-20T14:50:29;15.11;118.99
75784;DHT22;64565;44.752;37.674;2022-11-20T14:53:10;15.12;118.99
75784;DHT22;64565;44.752;37.674;2022-11-20T14:56:01;15.12;118.99
75784;DHT22;64565;44.752;37.674;2022-11-20T14:58:42;15.13;118.99
75784;DHT22;64565;44.752;37.674;2022-11-20T15:01:33;15.13;118.99
75784;DHT22;64565;44.752;37.674;2022-11-20T15:04:13;15.15;118.99
75784;DHT22;64565;44.752;37.674;2022-11-20T15:07:25;15.10;118.99
75784;DHT22;64565;44.752;37.674;2022-11-20T15:10:25;15.09;118.99
75784;DHT22;64565;44.752;37.674;2022-11-20T15:13:11;15.09;118.99
75784;DHT22;64565;44.752;37.674;2022-11-20T15:15:51;15.09;118.99
75784;DHT22;64565;44.752;37.674;2022-11-20T15:18:28;14.95;118.99
75784;DHT22;64565;44.752;37.674;2022-11-20T15:21:25;14.86;118.99
75784;DHT22;64565;44.752;37.674;2022-11-20T15:24:49;14.79;118.99
75784;DHT22;64565;44.752;37.674;2022-11-20T15:27:39;14.85;118.99
75784;DHT22;64565;44.752;37.674;2022-11-20T15:30:32;14.85;118.99
75784;DHT22;64565;44.752;37.674;2022-11-20T15:33:20;14.83;118.99
75784;DHT22;64565;44.752;37.674;2022-11-20T15:36:08;14.82;118.99
75784;DHT22;64565;44.752;37.674;2022-11-20T15:38:49;14.79;118.99
75784;DHT22;64565;44.752;37.674;2022-11-20T15:41:41;14.74;118.99
75784;DHT22;64565;44.752;37.674;2022-11-20T15:44:53;14.74;118.99
75784;DHT22;64565;44.752;37.674;2022-11-20T15:47:37;14.72;118.99
75784;DHT22;64565;44.752;37.674;2022-11-20T15:50:17;14.71;118.99
75784;DHT22;64565;44.752;37.674;2022-11-20T15:52:57;14.79;118.99
75784;DHT22;64565;44.752;37.674;2022-11-20T15:55:37;14.81;118.99
75784;DHT22;64565;44.752;37.674;2022-11-20T15:58:17;14.80;118.99
75784;DHT22;64565;44.752;37.674;2022-11-20T16:01:59;14.79;118.99
75784;DHT22;64565;44.752;37.674;2022-11-20T16:04:52;14.84;118.99
75784;DHT22;64565;44.752;37.674;2022-11-20T16:07:59;14.86;118.99
75784;DHT22;64565;44.752;37.674;2022-11-20T16:10:42;14.86;118.99
75784;DHT22;64565;44.752;37.674;2022-11-20T16:13:21;14.86;118.99
75784;DHT22;64565;44.752;37.674;2022-11-20T16:16:26;14.89;118.99
75784;DHT22;64565;44.752;37.674;2022-11-20T16:19:11;14.93;118.99
75784;DHT22;64565;44.752;37.674;2022-11-20T16:21:52;14.95;118.99
75784;DHT22;64565;44.752;37.674;2022-11-20T16:24:36;14.92;118.99
75784;DHT22;64565;44.752;37.674;2022-11-20T16:27:40;14.92;118.99
75784;DHT22;64565;44.752;37.674;2022-11-20T16:30:26;14.91;118.99
75784;DHT22;64565;44.752;37.674;2022-11-20T16:33:13;14.92;118.99
75784;DHT22;64565;44.752;37.674;2022-11-20T16:35:54;14.94;118.99
75784;DHT22;64565;44.752;37.674;2022-11-20T16:39:44;14.94;118.99
75784;DHT22;64565;44.752;37.674;2022-11-20T16:43:18;14.89;118.99
75784;DHT22;64565;44.752;37.674;2022-11-20T16:46:55;14.88;118.99
75784;DHT22;64565;44.752;37.674;2022-11-20T16:49:45;14.91;118.99
75784;DHT22;64565;44.752;37.674;2022-11-20T16:52:27;14.92;118.99
75784;DHT22;64565;44.752;37.674;2022-11-20T16:55:11;14.92;118.99
75784;DHT22;64565;44.752;37.674;2022-11-20T16:58:37;14.94;118.99
75784;DHT22;64565;44.752;37.674;2022-11-20T17:01:24;14.95;118.99
75784;DHT22;64565;44.752;37.674;2022-11-20T17:04:24;14.96;118.99
75784;DHT22;64565;44.752;37.674;2022-11-20T17:07:05;14.98;118.99
75784;DHT22;64565;44.752;37.674;2022-11-20T17:09:51;14.93;118.99
75784;DHT22;64565;44.752;37.674;2022-11-20T17:12:23;14.93;118.99
75784;DHT22;64565;44.752;37.674;2022-11-20T17:15:09;14.91;118.99
75784;DHT22;64565;44.752;37.674;2022-11-20T17:18:14;14.87;118.99
75784;DHT22;64565;44.752;37.674;2022-11-20T17:20:51;14.87;118.99
75784;DHT22;64565;44.752;37.674;2022-11-20T17:24:05;14.87;118.99
75784;DHT22;64565;44.752;37.674;2022-11-20T17:28:29;14.81;118.99
75784;DHT22;64565;44.752;37.674;2022-11-20T17:31:15;14.88;118.99
75784;DHT22;64565;44.752;37.674;2022-11-20T17:34:08;14.86;118.99
75784;DHT22;64565;44.752;37.674;2022-11-20T17:37:34;14.81;118.99
75784;DHT22;64565;44.752;37.674;2022-11-20T17:40:33;14.77;118.99
75784;DHT22;64565;44.752;37.674;2022-11-20T17:43:35;14.81;118.99
75784;DHT22;64565;44.752;37.674;2022-11-20T17:46:31;14.86;118.99
75784;DHT22;64565;44.752;37.674;2022-11-20T17:49:42;14.79;118.99
75784;DHT22;64565;44.752;37.674;2022-11-20T17:52:26;14.86;118.99
75784;DHT22;64565;44.752;37.674;2022-11-20T17:55:30;14.84;118.99
75784;DHT22;64565;44.752;37.674;2022-11-20T17:58:30;14.80;118.99
75784;DHT22;64565;44.752;37.674;2022-11-20T18:01:18;14.80;118.99
75784;DHT22;64565;44.752;37.674;2022-11-20T18:04:01;14.84;118.99
75784;DHT22;64565;44.752;37.674;2022-11-20T18:07:13;14.92;118.99
75784;DHT22;64565;44.752;37.674;2022-11-20T18:09:45;14.94;118.99
75784;DHT22;64565;44.752;37.674;2022-11-20T18:12:46;14.88;118.99
75784;DHT22;64565;44.752;37.674;2022-11-20T18:15:34;14.86;118.99
75784;DHT22;64565;44.752;37.674;2022-11-20T18:18:16;14.80;118.99
75784;DHT22;64565;44.752;37.674;2022-11-20T18:20:56;14.78;118.99
75784;DHT22;64565;44.752;37.674;2022-11-20T18:23:39;14.79;118.99
75784;DHT22;64565;44.752;37.674;2022-11-20T18:26:48;14.82;118.99
75784;DHT22;64565;44.752;37.674;2022-11-20T18:29:52;14.84;118.99
75784;DHT22;64565;44.752;37.674;2022-11-20T18:32:33;14.83;118.99
75784;DHT22;64565;44.752;37.674;2022-11-20T18:35:22;14.81;118.99
75784;DHT22;64565;44.752;37.674;2022-11-20T18:38:02;14.79;118.99
75784;DHT22;64565;44.752;37.674;2022-11-20T18:40:43;14.80;118.99
75784;DHT22;64565;44.752;37.674;2022-11-20T18:43:23;14.79;118.99
75784;DHT22;64565;44.752;37.674;2022-11-20T18:46:22;14.80;118.99
75784;DHT22;64565;44.752;37.674;2022-11-20T18:49:03;14.78;118.99
75784;DHT22;64565;44.752;37.674;2022-11-20T18:51:46;14.79;118.99
75784;DHT22;64565;44.752;37.674;2022-11-20T18:54:26;14.77;118.99
75784;DHT22;64565;44.752;37.674;2022-11-20T18:57:06;14.82;118.99
75784;DHT22;64565;44.752;37.674;2022-11-20T18:59:49;14.86;118.99
75784;DHT22;64565;44.752;37.674;2022-11-20T19:02:29;14.87;118.99
75784;DHT22;64565;44.752;37.674;2022-11-20T19:05:11;14.86;118.99
75784;DHT22;64565;44.752;37.674;2022-11-20T19:07:51;14.84;118.99
75784;DHT22;64565;44.752;37.674;2022-11-20T19:10:32;14.84;118.99